Time;durP1;ratioP1;P1;durP2;ratioP2;P2;SDS_P1;SDS_P2;PMS_P1;PMS_P2;Temp;Humidity;BMP_temperature;BMP_pressure;BME280_temperature;BME280_humidity;BME280_pressure;Samples;Min_cycle;Max_cycle;Signal;HPM_P1;HPM_P2
2022/04/04 00:01:37;;;;;;;1.63;1.10;;;;;;;;;;5024455;28;20232;-68
2022/04/04 00:04:24;;;;;;;2.00;1.27;;;;;;;;;;5021665;28;20259;-68
2022/04/04 00:07:12;;;;;;;1.47;1.17;;;;;;;;;;5015974;28;20239;-68
2022/04/04 00:09:59;;;;;;;2.27;1.00;;;;;;;;;;5018026;28;20673;-68
2022/04/04 00:12:46;;;;;;;1.33;0.90;;;;;;;;;;5019854;28;20247;-79
2022/04/04 00:15:33;;;;;;;1.07;1.07;;;;;;;;;;5020777;28;20716;-68
2022/04/04 00:18:20;;;;;;;1.30;1.20;;;;;;;;;;5014769;28;20525;-68
2022/04/04 00:21:07;;;;;;;2.07;1.40;;;;;;;;;;5016462;28;20225;-68
2022/04/04 00:23:55;;;;;;;1.90;1.20;;;;;;;;;;5019773;28;20295;-68
2022/04/04 00:26:42;;;;;;;2.27;1.07;;;;;;;;;;5025379;28;20300;-68
2022/04/04 00:29:29;;;;;;;1.10;1.00;;;;;;;;;;5022763;28;20232;-68
2022/04/04 00:32:16;;;;;;;1.10;1.00;;;;;;;;;;5023700;28;20201;-68
2022/04/04 00:35:03;;;;;;;2.27;1.10;;;;;;;;;;5026137;28;20216;-68
2022/04/04 00:37:50;;;;;;;1.10;1.00;;;;;;;;;;5019848;28;20692;-68
2022/04/04 00:40:39;;;;;;;0.97;0.90;;;;;;;;;;5025367;28;20211;-68
2022/04/04 00:43:26;;;;;;;1.10;0.90;;;;;;;;;;5021667;28;20601;-67
2022/04/04 00:46:13;;;;;;;1.10;1.10;;;;;;;;;;5022298;28;20259;-68
2022/04/04 00:48:59;;;;;;;2.10;0.93;;;;;;;;;;5025117;28;20236;-68
2022/04/04 00:51:46;;;;;;;0.87;0.87;;;;;;;;;;5025416;28;20257;-68
2022/04/04 00:54:33;;;;;;;0.90;0.90;;;;;;;;;;5020895;28;20283;-68
2022/04/04 00:57:22;;;;;;;1.00;0.90;;;;;;;;;;5025039;28;20315;-68
2022/04/04 01:00:11;;;;;;;1.27;1.00;;;;;;;;;;5023965;28;20212;-68
2022/04/04 01:02:58;;;;;;;1.53;1.10;;;;;;;;;;5023614;28;20231;-70
2022/04/04 01:05:45;;;;;;;1.17;1.07;;;;;;;;;;5026957;28;20279;-70
2022/04/04 01:08:32;;;;;;;0.90;0.73;;;;;;;;;;5025843;28;20208;-70
2022/04/04 01:11:19;;;;;;;1.27;0.83;;;;;;;;;;5023733;28;20205;-70
2022/04/04 01:14:07;;;;;;;1.07;1.00;;;;;;;;;;5025762;28;20241;-70
2022/04/04 01:16:54;;;;;;;1.30;0.93;;;;;;;;;;5023433;28;20283;-70
2022/04/04 01:19:41;;;;;;;0.90;0.70;;;;;;;;;;5024279;28;20204;-70
2022/04/04 01:22:28;;;;;;;1.50;0.80;;;;;;;;;;5019307;28;20228;-70
2022/04/04 01:25:22;;;;;;;1.47;1.10;;;;;;;;;;5022372;28;20370;-68
2022/04/04 01:28:09;;;;;;;1.97;1.37;;;;;;;;;;5024019;28;20244;-70
2022/04/04 01:30:56;;;;;;;0.83;0.80;;;;;;;;;;5020902;28;20231;-70
2022/04/04 01:33:43;;;;;;;1.07;1.03;;;;;;;;;;5020240;28;20291;-70
2022/04/04 01:36:30;;;;;;;1.57;1.23;;;;;;;;;;5023770;28;20212;-70
2022/04/04 01:39:17;;;;;;;1.07;0.80;;;;;;;;;;5021017;28;20358;-70
2022/04/04 01:42:06;;;;;;;0.70;0.70;;;;;;;;;;5019836;28;20639;-70
2022/04/04 01:44:52;;;;;;;0.87;0.87;;;;;;;;;;5021653;28;20313;-70
2022/04/04 01:47:41;;;;;;;1.93;0.90;;;;;;;;;;5022248;28;20676;-70
2022/04/04 01:50:27;;;;;;;1.57;1.00;;;;;;;;;;5022039;28;20502;-70
2022/04/04 01:53:26;;;;;;;1.03;0.80;;;;;;;;;;5022744;28;20283;-70
2022/04/04 01:56:14;;;;;;;1.43;0.80;;;;;;;;;;5017257;28;20220;-70
2022/04/04 01:59:04;;;;;;;0.77;0.67;;;;;;;;;;5024078;28;20350;-70
2022/04/04 02:01:51;;;;;;;1.13;0.87;;;;;;;;;;5022522;28;20225;-70
2022/04/04 02:04:38;;;;;;;1.53;1.00;;;;;;;;;;5022508;28;20220;-70
2022/04/04 02:07:25;;;;;;;0.90;0.90;;;;;;;;;;5023560;28;20241;-70
2022/04/04 02:10:12;;;;;;;1.17;1.07;;;;;;;;;;5020297;28;20289;-70
2022/04/04 02:12:59;;;;;;;1.60;1.10;;;;;;;;;;5018218;28;20236;-70
2022/04/04 02:15:47;;;;;;;0.83;0.80;;;;;;;;;;5026085;28;20219;-70
2022/04/04 02:18:35;;;;;;;1.37;1.00;;;;;;;;;;5024259;28;20823;-70
2022/04/04 02:21:22;;;;;;;1.07;0.80;;;;;;;;;;5022812;28;20673;-70
2022/04/04 02:24:09;;;;;;;1.53;1.03;;;;;;;;;;5016404;28;20766;-70
2022/04/04 02:26:56;;;;;;;0.80;0.57;;;;;;;;;;5021931;28;20377;-70
2022/04/04 02:29:43;;;;;;;0.90;0.80;;;;;;;;;;5021257;28;20283;-70
2022/04/04 02:32:32;;;;;;;1.33;1.03;;;;;;;;;;5022261;28;20331;-70
2022/04/04 02:35:19;;;;;;;1.17;0.90;;;;;;;;;;5022166;28;20676;-70
2022/04/04 02:38:07;;;;;;;1.17;0.90;;;;;;;;;;5019388;28;20659;-70
2022/04/04 02:40:56;;;;;;;1.50;0.80;;;;;;;;;;5019999;28;20269;-70
2022/04/04 02:43:43;;;;;;;1.27;0.87;;;;;;;;;;5023021;28;20296;-70
2022/04/04 02:46:30;;;;;;;2.07;1.10;;;;;;;;;;5021095;28;20217;-70
2022/04/04 02:49:19;;;;;;;1.33;0.77;;;;;;;;;;5023483;28;20729;-70
2022/04/04 02:52:06;;;;;;;0.90;0.77;;;;;;;;;;5022836;28;20287;-70
2022/04/04 02:54:53;;;;;;;1.10;0.97;;;;;;;;;;5019709;28;20213;-71
2022/04/04 02:57:39;;;;;;;0.70;0.60;;;;;;;;;;5021704;28;20607;-70
2022/04/04 03:00:27;;;;;;;1.13;0.80;;;;;;;;;;5019040;28;20259;-70
2022/04/04 03:03:15;;;;;;;0.83;0.83;;;;;;;;;;5021717;28;20232;-70
2022/04/04 03:06:04;;;;;;;0.80;0.80;;;;;;;;;;5022181;28;20225;-70
2022/04/04 03:08:51;;;;;;;1.27;1.00;;;;;;;;;;5019698;28;20213;-69
2022/04/04 03:11:39;;;;;;;1.10;1.00;;;;;;;;;;5020825;28;20571;-70
2022/04/04 03:14:25;;;;;;;1.00;0.83;;;;;;;;;;5019239;28;20208;-70
2022/04/04 03:17:12;;;;;;;1.00;0.80;;;;;;;;;;5017852;28;20320;-70
2022/04/04 03:19:59;;;;;;;0.83;0.80;;;;;;;;;;5017693;28;20204;-70
2022/04/04 03:22:49;;;;;;;0.90;0.67;;;;;;;;;;5020376;28;20232;-70
2022/04/04 03:25:36;;;;;;;1.40;1.00;;;;;;;;;;5018034;28;20603;-70
2022/04/04 03:28:23;;;;;;;0.80;0.60;;;;;;;;;;5024659;28;20209;-70
2022/04/04 03:31:10;;;;;;;0.97;0.80;;;;;;;;;;5020906;28;20213;-70
2022/04/04 03:33:57;;;;;;;0.90;0.83;;;;;;;;;;5017626;28;20291;-70
2022/04/04 03:36:44;;;;;;;1.30;1.00;;;;;;;;;;5019928;28;20231;-70
2022/04/04 03:39:32;;;;;;;1.10;0.80;;;;;;;;;;5019999;28;20252;-70
2022/04/04 03:42:20;;;;;;;0.80;0.80;;;;;;;;;;5020277;28;20237;-70
2022/04/04 03:45:08;;;;;;;0.80;0.73;;;;;;;;;;5020781;28;20255;-70
2022/04/04 03:47:55;;;;;;;0.93;0.83;;;;;;;;;;5019063;28;20755;-70
2022/04/04 03:50:43;;;;;;;1.67;0.70;;;;;;;;;;5000601;28;20307;-70
2022/04/04 03:53:30;;;;;;;1.03;0.73;;;;;;;;;;5000714;28;20218;-70
2022/04/04 03:56:18;;;;;;;0.83;0.67;;;;;;;;;;5004285;28;20697;-70
2022/04/04 03:59:06;;;;;;;0.90;0.60;;;;;;;;;;5004196;28;20427;-70
2022/04/04 04:01:53;;;;;;;1.50;0.80;;;;;;;;;;5005890;28;20383;-70
2022/04/04 04:04:40;;;;;;;0.87;0.63;;;;;;;;;;5005848;28;20296;-70
2022/04/04 04:07:27;;;;;;;0.90;0.77;;;;;;;;;;5007121;28;20212;-70
2022/04/04 04:10:14;;;;;;;0.93;0.87;;;;;;;;;;5006172;28;20257;-70
2022/04/04 04:13:05;;;;;;;1.07;0.60;;;;;;;;;;5002642;28;20238;-70
2022/04/04 04:15:52;;;;;;;1.47;0.67;;;;;;;;;;5006494;28;20229;-70
2022/04/04 04:18:39;;;;;;;0.80;0.70;;;;;;;;;;5005364;28;20224;-69
2022/04/04 04:21:26;;;;;;;1.13;0.80;;;;;;;;;;5008258;28;20302;-70
2022/04/04 04:24:12;;;;;;;0.70;0.70;;;;;;;;;;5005957;28;20217;-70
2022/04/04 04:26:59;;;;;;;1.10;0.57;;;;;;;;;;5005576;28;20209;-70
2022/04/04 04:29:48;;;;;;;0.70;0.53;;;;;;;;;;5001793;28;20256;-70
2022/04/04 04:32:35;;;;;;;0.87;0.77;;;;;;;;;;5002278;28;20263;-70
2022/04/04 04:35:23;;;;;;;1.03;0.60;;;;;;;;;;5007736;28;20244;-70
2022/04/04 04:38:10;;;;;;;0.60;0.60;;;;;;;;;;5003443;28;20224;-70
2022/04/04 04:40:57;;;;;;;0.60;0.60;;;;;;;;;;5007579;28;20705;-70
2022/04/04 04:43:44;;;;;;;0.50;0.47;;;;;;;;;;5008017;28;20225;-70
2022/04/04 04:46:33;;;;;;;0.50;0.43;;;;;;;;;;5002937;28;20258;-71
2022/04/04 04:49:20;;;;;;;0.67;0.60;;;;;;;;;;5014893;28;20279;-70
2022/04/04 04:52:07;;;;;;;0.50;0.50;;;;;;;;;;5020529;28;20236;-71
2022/04/04 04:54:55;;;;;;;0.40;0.40;;;;;;;;;;5020801;28;20287;-69
2022/04/04 04:57:41;;;;;;;1.07;0.77;;;;;;;;;;5021778;28;20294;-70
2022/04/04 05:00:29;;;;;;;0.40;0.40;;;;;;;;;;5020370;28;20212;-70
2022/04/04 05:03:27;;;;;;;1.13;0.70;;;;;;;;;;5024165;28;20259;-70
2022/04/04 05:06:14;;;;;;;0.60;0.60;;;;;;;;;;5024935;28;20200;-70
2022/04/04 05:09:01;;;;;;;1.10;0.40;;;;;;;;;;5021587;28;20363;-70
2022/04/04 05:11:48;;;;;;;0.77;0.70;;;;;;;;;;5018443;28;20689;-70
2022/04/04 05:14:36;;;;;;;0.47;0.47;;;;;;;;;;5025583;28;20203;-69
2022/04/04 05:17:22;;;;;;;0.53;0.50;;;;;;;;;;5024493;28;20215;-70
2022/04/04 05:20:12;;;;;;;0.77;0.77;;;;;;;;;;5023851;28;20240;-70
2022/04/04 05:22:59;;;;;;;0.60;0.60;;;;;;;;;;5021659;28;20704;-69
2022/04/04 05:25:46;;;;;;;0.50;0.50;;;;;;;;;;5024029;28;20228;-69
2022/04/04 05:28:34;;;;;;;0.60;0.60;;;;;;;;;;5021519;28;20205;-69
2022/04/04 05:31:20;;;;;;;0.70;0.60;;;;;;;;;;5024522;28;20287;-70
2022/04/04 05:34:07;;;;;;;0.60;0.60;;;;;;;;;;5017659;28;20350;-70
2022/04/04 05:36:56;;;;;;;0.50;0.50;;;;;;;;;;5022087;28;20669;-70
2022/04/04 05:39:43;;;;;;;0.60;0.60;;;;;;;;;;5026293;28;20212;-70
2022/04/04 05:42:30;;;;;;;0.87;0.77;;;;;;;;;;5022247;28;20310;-70
2022/04/04 05:45:17;;;;;;;0.60;0.60;;;;;;;;;;5020717;28;20242;-70
2022/04/04 05:48:05;;;;;;;0.67;0.60;;;;;;;;;;5020989;28;20212;-70
2022/04/04 05:50:52;;;;;;;0.50;0.47;;;;;;;;;;5023220;28;20247;-70
2022/04/04 05:53:41;;;;;;;0.70;0.70;;;;;;;;;;5022380;28;20700;-70
2022/04/04 05:56:28;;;;;;;0.53;0.50;;;;;;;;;;5022906;28;20290;-70
2022/04/04 05:59:15;;;;;;;0.60;0.43;;;;;;;;;;5026624;28;20220;-70
2022/04/04 06:02:02;;;;;;;0.50;0.50;;;;;;;;;;5022250;28;20628;-72
2022/04/04 06:04:49;;;;;;;1.17;0.60;;;;;;;;;;5022938;28;20615;-69
2022/04/04 06:07:37;;;;;;;0.50;0.50;;;;;;;;;;5026380;28;20584;-70
2022/04/04 06:10:26;;;;;;;0.40;0.40;;;;;;;;;;5024207;28;20240;-70
2022/04/04 06:13:13;;;;;;;0.60;0.50;;;;;;;;;;5021651;28;20209;-70
2022/04/04 06:16:00;;;;;;;0.60;0.50;;;;;;;;;;5024868;28;20216;-70
2022/04/04 06:18:47;;;;;;;0.57;0.57;;;;;;;;;;5026803;28;20302;-70
2022/04/04 06:21:34;;;;;;;0.70;0.70;;;;;;;;;;5025528;28;20225;-70
2022/04/04 06:24:21;;;;;;;0.80;0.50;;;;;;;;;;5021174;28;20310;-72
2022/04/04 06:27:09;;;;;;;0.63;0.63;;;;;;;;;;5023613;28;20216;-70
2022/04/04 06:29:56;;;;;;;0.70;0.70;;;;;;;;;;5018295;28;20216;-69
2022/04/04 06:32:44;;;;;;;0.60;0.60;;;;;;;;;;5020621;28;20236;-70
2022/04/04 06:35:31;;;;;;;1.03;0.77;;;;;;;;;;5020987;28;20201;-70
2022/04/04 06:38:19;;;;;;;0.60;0.50;;;;;;;;;;5022054;28;20198;-70
2022/04/04 06:41:06;;;;;;;0.70;0.70;;;;;;;;;;5021453;28;20205;-70
2022/04/04 06:43:54;;;;;;;1.33;0.97;;;;;;;;;;5016555;28;20232;-70
2022/04/04 06:46:41;;;;;;;0.60;0.60;;;;;;;;;;5019255;28;20201;-70
2022/04/04 06:49:28;;;;;;;0.53;0.53;;;;;;;;;;5024920;28;20328;-70
2022/04/04 06:52:15;;;;;;;0.63;0.63;;;;;;;;;;5018904;28;20275;-70
2022/04/04 06:55:02;;;;;;;2.00;0.50;;;;;;;;;;5019252;28;20266;-70
2022/04/04 06:57:49;;;;;;;0.43;0.40;;;;;;;;;;5021014;28;20870;-70
2022/04/04 07:00:37;;;;;;;0.50;0.50;;;;;;;;;;5022477;28;20279;-70
2022/04/04 07:03:24;;;;;;;0.70;0.70;;;;;;;;;;5019951;28;20256;-70
2022/04/04 07:06:12;;;;;;;0.50;0.50;;;;;;;;;;5021812;28;20780;-70
2022/04/04 07:08:59;;;;;;;0.47;0.47;;;;;;;;;;5020828;28;20590;-70
2022/04/04 07:11:47;;;;;;;0.63;0.63;;;;;;;;;;5020299;28;20654;-70
2022/04/04 07:14:34;;;;;;;0.67;0.67;;;;;;;;;;5021863;28;20266;-71
2022/04/04 07:17:23;;;;;;;0.40;0.40;;;;;;;;;;5021019;28;20221;-70
2022/04/04 07:20:11;;;;;;;0.63;0.63;;;;;;;;;;5017052;28;20612;-71
2022/04/04 07:22:59;;;;;;;0.90;0.60;;;;;;;;;;5023051;28;21017;-71
2022/04/04 07:25:47;;;;;;;0.63;0.63;;;;;;;;;;5019891;28;20325;-70
2022/04/04 07:28:35;;;;;;;0.50;0.50;;;;;;;;;;5023901;28;20298;-70
2022/04/04 07:31:22;;;;;;;0.50;0.50;;;;;;;;;;5022336;28;20236;-70
2022/04/04 07:34:11;;;;;;;0.30;0.30;;;;;;;;;;5023555;28;20312;-70
2022/04/04 07:36:58;;;;;;;0.83;0.77;;;;;;;;;;5022303;28;20211;-71
2022/04/04 07:39:45;;;;;;;0.60;0.60;;;;;;;;;;5024369;28;20247;-70
2022/04/04 07:42:32;;;;;;;0.60;0.60;;;;;;;;;;5025445;28;20203;-70
2022/04/04 07:45:19;;;;;;;0.70;0.70;;;;;;;;;;5024645;28;20567;-70
2022/04/04 07:48:08;;;;;;;1.13;0.73;;;;;;;;;;5026228;28;20248;-70
2022/04/04 07:50:56;;;;;;;0.50;0.50;;;;;;;;;;5023258;28;20271;-70
2022/04/04 07:53:43;;;;;;;0.50;0.50;;;;;;;;;;5021340;28;20297;-70
2022/04/04 07:56:30;;;;;;;0.60;0.60;;;;;;;;;;5025937;28;20310;-70
2022/04/04 07:59:17;;;;;;;0.70;0.70;;;;;;;;;;5023891;28;20355;-70
2022/04/04 08:02:05;;;;;;;0.70;0.50;;;;;;;;;;5021451;28;20210;-70
2022/04/04 08:04:52;;;;;;;0.50;0.50;;;;;;;;;;5019695;28;20224;-70
2022/04/04 08:07:44;;;;;;;0.60;0.60;;;;;;;;;;5018954;28;20245;-70
2022/04/04 08:10:31;;;;;;;0.83;0.60;;;;;;;;;;5020139;28;20212;-70
2022/04/04 08:13:18;;;;;;;0.40;0.40;;;;;;;;;;5029304;28;20228;-70
2022/04/04 08:16:06;;;;;;;1.03;0.80;;;;;;;;;;5025591;28;20290;-70
2022/04/04 08:18:53;;;;;;;0.60;0.60;;;;;;;;;;5024785;28;20221;-70
2022/04/04 08:21:41;;;;;;;0.60;0.60;;;;;;;;;;5019265;28;20213;-70
2022/04/04 08:24:30;;;;;;;0.90;0.50;;;;;;;;;;5022769;28;20229;-70
2022/04/04 08:27:17;;;;;;;0.60;0.60;;;;;;;;;;5025831;28;20671;-70
2022/04/04 08:30:05;;;;;;;0.50;0.50;;;;;;;;;;5017173;28;20214;-70
2022/04/04 08:32:52;;;;;;;0.50;0.50;;;;;;;;;;5021403;28;20234;-70
2022/04/04 08:35:39;;;;;;;0.50;0.50;;;;;;;;;;5024517;28;20350;-70
2022/04/04 08:38:26;;;;;;;0.67;0.67;;;;;;;;;;5023396;28;20230;-70
2022/04/04 08:41:15;;;;;;;0.50;0.50;;;;;;;;;;5022418;28;20202;-70
2022/04/04 08:44:03;;;;;;;1.03;0.50;;;;;;;;;;5027660;28;20312;-70
2022/04/04 08:46:51;;;;;;;0.70;0.70;;;;;;;;;;5022078;28;20317;-70
2022/04/04 08:49:40;;;;;;;0.50;0.50;;;;;;;;;;5023525;28;20727;-70
2022/04/04 08:52:28;;;;;;;0.50;0.50;;;;;;;;;;5023452;28;20356;-70
2022/04/04 08:55:15;;;;;;;0.50;0.50;;;;;;;;;;5025258;28;20214;-70
2022/04/04 08:58:04;;;;;;;0.40;0.40;;;;;;;;;;5023471;28;20638;-70
2022/04/04 09:00:51;;;;;;;0.70;0.63;;;;;;;;;;5024810;28;20611;-70
2022/04/04 09:03:38;;;;;;;0.40;0.40;;;;;;;;;;5024694;28;20319;-70
2022/04/04 09:06:28;;;;;;;0.40;0.40;;;;;;;;;;5022367;28;20249;-70
2022/04/04 09:09:19;;;;;;;0.60;0.60;;;;;;;;;;5025533;28;20213;-70
2022/04/04 09:12:08;;;;;;;0.40;0.40;;;;;;;;;;5024211;28;20284;-70
2022/04/04 09:14:59;;;;;;;0.40;0.40;;;;;;;;;;5027466;28;20327;-70
2022/04/04 09:17:47;;;;;;;0.50;0.50;;;;;;;;;;5022895;28;20295;-70
2022/04/04 09:20:34;;;;;;;0.33;0.33;;;;;;;;;;5023920;28;20303;-70
2022/04/04 09:23:21;;;;;;;0.60;0.60;;;;;;;;;;5019568;28;20217;-70
2022/04/04 09:26:27;;;;;;;0.33;0.33;;;;;;;;;;5019712;28;20213;-70
2022/04/04 09:29:17;;;;;;;0.53;0.40;;;;;;;;;;5020287;28;20283;-70
2022/04/04 09:32:09;;;;;;;0.50;0.50;;;;;;;;;;5024650;28;20562;-70
2022/04/04 09:35:01;;;;;;;1.23;0.50;;;;;;;;;;5019808;28;20252;-70
2022/04/04 09:37:50;;;;;;;0.50;0.50;;;;;;;;;;5022561;28;20212;-70
2022/04/04 09:40:37;;;;;;;0.37;0.30;;;;;;;;;;5020696;28;20226;-71
2022/04/04 09:43:24;;;;;;;0.50;0.50;;;;;;;;;;5024443;28;20291;-70
2022/04/04 09:46:11;;;;;;;0.20;0.20;;;;;;;;;;5022131;28;20300;-70
2022/04/04 09:49:12;;;;;;;0.30;0.30;;;;;;;;;;5024786;28;20249;-70
2022/04/04 09:51:58;;;;;;;0.60;0.60;;;;;;;;;;5015478;28;20269;-70
2022/04/04 09:54:46;;;;;;;0.40;0.40;;;;;;;;;;5021288;28;20313;-70
2022/04/04 09:57:33;;;;;;;0.30;0.20;;;;;;;;;;5021477;28;20206;-70
2022/04/04 10:00:21;;;;;;;0.40;0.40;;;;;;;;;;5018971;28;20261;-70
2022/04/04 10:03:12;;;;;;;1.20;0.40;;;;;;;;;;5020540;28;20217;-70
2022/04/04 10:06:05;;;;;;;0.20;0.20;;;;;;;;;;5020778;28;20217;-70
2022/04/04 10:08:54;;;;;;;0.47;0.47;;;;;;;;;;5017431;28;20241;-69
2022/04/04 10:11:41;;;;;;;0.20;0.20;;;;;;;;;;5026238;28;20282;-70
2022/04/04 10:14:30;;;;;;;0.40;0.40;;;;;;;;;;5020198;28;20741;-70
2022/04/04 10:17:18;;;;;;;0.37;0.30;;;;;;;;;;5020293;28;20315;-70
2022/04/04 10:20:06;;;;;;;0.40;0.40;;;;;;;;;;5021707;28;20659;-70
2022/04/04 10:22:55;;;;;;;0.50;0.50;;;;;;;;;;5015134;28;20645;-70
2022/04/04 10:25:43;;;;;;;0.30;0.30;;;;;;;;;;5017873;28;20226;-70
2022/04/04 10:28:32;;;;;;;0.60;0.60;;;;;;;;;;5025063;28;20209;-70
2022/04/04 10:31:20;;;;;;;0.50;0.50;;;;;;;;;;5013392;28;20210;-70
2022/04/04 10:34:13;;;;;;;0.50;0.50;;;;;;;;;;5020773;28;20217;-70
2022/04/04 10:37:02;;;;;;;0.30;0.30;;;;;;;;;;5022841;28;20212;-70
2022/04/04 10:39:50;;;;;;;0.43;0.43;;;;;;;;;;5019657;28;20232;-70
2022/04/04 10:42:37;;;;;;;0.40;0.40;;;;;;;;;;5018592;28;20271;-70
2022/04/04 10:45:24;;;;;;;0.43;0.40;;;;;;;;;;5020338;28;20234;-69
2022/04/04 10:48:11;;;;;;;0.50;0.50;;;;;;;;;;5020588;28;20647;-69
2022/04/04 10:51:03;;;;;;;0.30;0.30;;;;;;;;;;5021508;28;20215;-70
2022/04/04 10:53:53;;;;;;;0.40;0.40;;;;;;;;;;5021522;28;20380;-70
2022/04/04 10:56:44;;;;;;;0.37;0.37;;;;;;;;;;5023605;28;20204;-70
2022/04/04 10:59:31;;;;;;;0.40;0.40;;;;;;;;;;5016562;28;20277;-70
2022/04/04 11:02:19;;;;;;;0.47;0.47;;;;;;;;;;5018477;28;20217;-70
2022/04/04 11:08:34;;;;;;;0.37;0.37;;;;;;;;;;4989517;28;20221;-70
2022/04/04 11:11:44;;;;;;;0.20;0.20;;;;;;;;;;5019512;28;20220;-70
2022/04/04 11:14:46;;;;;;;0.40;0.40;;;;;;;;;;5022018;28;20239;-70
2022/04/04 11:17:43;;;;;;;0.40;0.40;;;;;;;;;;5023235;28;20295;-70
2022/04/04 11:20:36;;;;;;;0.37;0.37;;;;;;;;;;5018269;28;20210;-69
2022/04/04 11:23:28;;;;;;;0.30;0.30;;;;;;;;;;5020913;28;20205;-69
2022/04/04 11:26:19;;;;;;;0.50;0.50;;;;;;;;;;5017668;28;20701;-70
2022/04/04 11:29:09;;;;;;;0.30;0.30;;;;;;;;;;5022334;28;20661;-70
2022/04/04 11:31:56;;;;;;;0.20;0.20;;;;;;;;;;5021338;28;20214;-70
2022/04/04 11:34:43;;;;;;;0.30;0.30;;;;;;;;;;5017224;28;20246;-70
2022/04/04 11:37:31;;;;;;;0.40;0.40;;;;;;;;;;5020016;28;20201;-70
2022/04/04 11:40:19;;;;;;;0.57;0.33;;;;;;;;;;5021084;28;20206;-70
2022/04/04 11:43:08;;;;;;;0.40;0.40;;;;;;;;;;5020327;28;20319;-70
2022/04/04 11:45:57;;;;;;;1.07;0.40;;;;;;;;;;5019037;28;20277;-70
2022/04/04 11:48:50;;;;;;;0.40;0.40;;;;;;;;;;5021399;28;20313;-70
2022/04/04 11:51:38;;;;;;;0.53;0.50;;;;;;;;;;5018332;28;20716;-69
2022/04/04 11:54:27;;;;;;;0.93;0.60;;;;;;;;;;5021335;28;20679;-70
2022/04/04 11:57:14;;;;;;;0.50;0.50;;;;;;;;;;5021315;28;20222;-70
2022/04/04 12:00:05;;;;;;;0.50;0.50;;;;;;;;;;5022623;28;20216;-69
2022/04/04 12:02:53;;;;;;;0.53;0.47;;;;;;;;;;5021804;28;20218;-69
2022/04/04 12:05:42;;;;;;;0.50;0.50;;;;;;;;;;5026680;28;20248;-69
2022/04/04 12:08:29;;;;;;;0.40;0.40;;;;;;;;;;5022686;28;20206;-70
2022/04/04 12:11:28;;;;;;;0.50;0.50;;;;;;;;;;5019148;28;20218;-70
2022/04/04 12:14:15;;;;;;;0.40;0.40;;;;;;;;;;5023905;28;20205;-70
2022/04/04 12:17:02;;;;;;;0.93;0.40;;;;;;;;;;5024912;28;20219;-70
2022/04/04 12:19:52;;;;;;;0.57;0.50;;;;;;;;;;5018748;28;20206;-69
2022/04/04 12:25:43;;;;;;;1.70;0.50;;;;;;;;;;5025750;28;20220;-69
2022/04/04 12:28:32;;;;;;;0.40;0.40;;;;;;;;;;5020959;28;20271;-70
2022/04/04 12:31:22;;;;;;;0.30;0.30;;;;;;;;;;5022132;28;20214;-70
2022/04/04 12:34:11;;;;;;;0.40;0.40;;;;;;;;;;5024639;28;20702;-69
2022/04/04 12:37:01;;;;;;;0.30;0.30;;;;;;;;;;5025118;28;20400;-70
2022/04/04 12:39:50;;;;;;;0.30;0.30;;;;;;;;;;5020011;28;20246;-70
2022/04/04 12:42:37;;;;;;;0.43;0.40;;;;;;;;;;5021783;28;20692;-69
2022/04/04 12:45:24;;;;;;;0.20;0.20;;;;;;;;;;5025945;28;20598;-69
2022/04/04 12:48:11;;;;;;;0.30;0.30;;;;;;;;;;5024235;28;20234;-70
2022/04/04 12:50:58;;;;;;;0.30;0.30;;;;;;;;;;5019626;28;20274;-69
2022/04/04 12:53:52;;;;;;;0.27;0.27;;;;;;;;;;5025742;28;20305;-70
2022/04/04 12:56:50;;;;;;;0.30;0.30;;;;;;;;;;5025724;28;20209;-70
2022/04/04 12:59:49;;;;;;;0.20;0.20;;;;;;;;;;5021825;28;20211;-69
2022/04/04 13:02:37;;;;;;;0.40;0.40;;;;;;;;;;5024411;28;20202;-70
2022/04/04 13:05:25;;;;;;;0.57;0.20;;;;;;;;;;5023993;28;20312;-70
2022/04/04 13:08:18;;;;;;;0.20;0.20;;;;;;;;;;5020770;28;20350;-70
2022/04/04 13:11:09;;;;;;;0.40;0.40;;;;;;;;;;5027941;28;20293;-70
2022/04/04 13:14:03;;;;;;;0.30;0.30;;;;;;;;;;5021120;28;20205;-70
2022/04/04 13:16:52;;;;;;;0.30;0.30;;;;;;;;;;5024575;28;20210;-70
2022/04/04 13:19:39;;;;;;;0.20;0.20;;;;;;;;;;5020539;28;20236;-70
2022/04/04 13:22:26;;;;;;;0.33;0.33;;;;;;;;;;5024019;28;20814;-70
2022/04/04 13:25:14;;;;;;;0.37;0.37;;;;;;;;;;5022663;28;20240;-70
2022/04/04 13:28:03;;;;;;;0.67;0.33;;;;;;;;;;5029379;28;20591;-70
2022/04/04 13:30:50;;;;;;;0.30;0.30;;;;;;;;;;5021971;28;20217;-69
2022/04/04 13:33:37;;;;;;;0.20;0.20;;;;;;;;;;5022142;28;20214;-69
2022/04/04 13:36:24;;;;;;;0.30;0.27;;;;;;;;;;5024134;28;20687;-70
2022/04/04 13:39:12;;;;;;;0.20;0.20;;;;;;;;;;5025150;28;20222;-70
2022/04/04 13:41:59;;;;;;;0.60;0.40;;;;;;;;;;5021246;28;20218;-69
2022/04/04 13:44:51;;;;;;;0.30;0.30;;;;;;;;;;5022367;28;20612;-69
2022/04/04 13:47:38;;;;;;;0.40;0.40;;;;;;;;;;5021902;28;20207;-70
2022/04/04 13:50:25;;;;;;;0.30;0.30;;;;;;;;;;5023946;28;20318;-70
2022/04/04 13:53:12;;;;;;;0.53;0.30;;;;;;;;;;5023298;28;20278;-69
2022/04/04 13:55:59;;;;;;;0.30;0.30;;;;;;;;;;5021192;28;20234;-70
2022/04/04 13:58:46;;;;;;;0.30;0.30;;;;;;;;;;5019258;28;20821;-70
2022/04/04 14:01:35;;;;;;;0.67;0.30;;;;;;;;;;5023146;28;20214;-70
2022/04/04 14:04:22;;;;;;;0.73;0.20;;;;;;;;;;5022632;28;20311;-70
2022/04/04 14:07:10;;;;;;;0.40;0.40;;;;;;;;;;5025432;28;20292;-70
2022/04/04 14:09:58;;;;;;;0.50;0.30;;;;;;;;;;5024845;28;20583;-70
2022/04/04 14:12:45;;;;;;;0.20;0.20;;;;;;;;;;5022828;28;20242;-70
2022/04/04 14:15:32;;;;;;;0.50;0.33;;;;;;;;;;5022436;28;20316;-70
2022/04/04 14:18:21;;;;;;;0.30;0.30;;;;;;;;;;5022842;28;20238;-70
2022/04/04 14:21:08;;;;;;;0.30;0.30;;;;;;;;;;5020737;28;20234;-70
2022/04/04 14:23:55;;;;;;;0.50;0.50;;;;;;;;;;5019263;28;20210;-70
2022/04/04 14:26:42;;;;;;;0.30;0.30;;;;;;;;;;5020795;28;20373;-69
2022/04/04 14:29:29;;;;;;;0.30;0.30;;;;;;;;;;5019860;28;20613;-69
2022/04/04 14:32:16;;;;;;;0.33;0.27;;;;;;;;;;5017883;28;20626;-70
2022/04/04 14:35:05;;;;;;;0.30;0.30;;;;;;;;;;5018174;28;20202;-70
2022/04/04 14:37:53;;;;;;;0.20;0.20;;;;;;;;;;5017996;28;20209;-70
2022/04/04 14:40:42;;;;;;;0.47;0.40;;;;;;;;;;5025635;28;20213;-70
2022/04/04 14:43:28;;;;;;;0.40;0.40;;;;;;;;;;5019538;28;20202;-70
2022/04/04 14:46:16;;;;;;;0.20;0.20;;;;;;;;;;5018876;28;20813;-69
2022/04/04 14:49:03;;;;;;;0.20;0.20;;;;;;;;;;5013030;28;20242;-70
2022/04/04 14:51:51;;;;;;;0.50;0.40;;;;;;;;;;5002309;28;20213;-70
2022/04/04 14:54:38;;;;;;;0.40;0.40;;;;;;;;;;4997205;28;20275;-70
2022/04/04 14:57:25;;;;;;;0.30;0.30;;;;;;;;;;5000089;28;20219;-70
2022/04/04 15:00:13;;;;;;;0.40;0.40;;;;;;;;;;4998396;28;20297;-70
2022/04/04 15:03:00;;;;;;;0.23;0.20;;;;;;;;;;4999211;28;20206;-70
2022/04/04 15:05:47;;;;;;;0.20;0.20;;;;;;;;;;5000117;28;20265;-69
2022/04/04 15:08:35;;;;;;;0.30;0.30;;;;;;;;;;4995928;28;20216;-70
2022/04/04 15:11:22;;;;;;;0.30;0.30;;;;;;;;;;5001290;28;20722;-70
2022/04/04 15:14:09;;;;;;;0.20;0.20;;;;;;;;;;5002446;28;20292;-70
2022/04/04 15:16:57;;;;;;;0.40;0.40;;;;;;;;;;4999629;28;20264;-70
2022/04/04 15:19:44;;;;;;;0.50;0.40;;;;;;;;;;5000074;28;20507;-69
2022/04/04 15:22:31;;;;;;;0.20;0.20;;;;;;;;;;4997611;28;20245;-70
2022/04/04 15:25:19;;;;;;;0.23;0.20;;;;;;;;;;4993565;28;20230;-69
2022/04/04 15:28:06;;;;;;;0.30;0.30;;;;;;;;;;5001201;28;20234;-69
2022/04/04 15:30:55;;;;;;;0.40;0.37;;;;;;;;;;4999237;28;20221;-70
2022/04/04 15:33:42;;;;;;;0.30;0.30;;;;;;;;;;4999702;28;20921;-69
2022/04/04 15:36:36;;;;;;;0.30;0.30;;;;;;;;;;4996603;28;20214;-69
2022/04/04 15:39:24;;;;;;;0.30;0.30;;;;;;;;;;5000246;28;20567;-69
2022/04/04 15:42:13;;;;;;;0.30;0.30;;;;;;;;;;5002332;28;20206;-69
2022/04/04 15:45:00;;;;;;;0.17;0.17;;;;;;;;;;5001397;28;20211;-70
2022/04/04 15:47:47;;;;;;;0.23;0.23;;;;;;;;;;5001376;28;20288;-69
2022/04/04 15:50:34;;;;;;;0.20;0.20;;;;;;;;;;4998286;28;20218;-69
2022/04/04 15:53:21;;;;;;;0.20;0.20;;;;;;;;;;4998936;28;20301;-69
2022/04/04 15:56:08;;;;;;;0.20;0.20;;;;;;;;;;5000313;28;20195;-69
2022/04/04 15:58:58;;;;;;;0.20;0.20;;;;;;;;;;4998354;28;20665;-69
2022/04/04 16:01:46;;;;;;;0.20;0.20;;;;;;;;;;5002045;28;20689;-69
2022/04/04 16:04:33;;;;;;;0.10;0.10;;;;;;;;;;4997393;28;20209;-69
2022/04/04 16:07:20;;;;;;;0.30;0.30;;;;;;;;;;5001592;28;20545;-70
2022/04/04 16:10:07;;;;;;;0.20;0.20;;;;;;;;;;5004863;28;20207;-70
2022/04/04 16:12:54;;;;;;;0.20;0.20;;;;;;;;;;5003219;28;20210;-69
2022/04/04 16:15:43;;;;;;;0.27;0.27;;;;;;;;;;5001342;28;20210;-70
2022/04/04 16:18:30;;;;;;;1.43;0.30;;;;;;;;;;4999551;28;20211;-69
2022/04/04 16:21:18;;;;;;;0.30;0.30;;;;;;;;;;5003354;28;20202;-70
2022/04/04 16:24:06;;;;;;;0.20;0.20;;;;;;;;;;5004477;28;20213;-70
2022/04/04 16:26:53;;;;;;;0.30;0.30;;;;;;;;;;5007395;28;20311;-70
2022/04/04 16:29:39;;;;;;;1.37;0.20;;;;;;;;;;5003097;28;20253;-70
2022/04/04 16:32:28;;;;;;;0.20;0.20;;;;;;;;;;5008569;28;20213;-70
2022/04/04 16:35:15;;;;;;;0.20;0.20;;;;;;;;;;5001659;28;20754;-70
2022/04/04 16:38:02;;;;;;;0.27;0.27;;;;;;;;;;5004571;28;20637;-70
2022/04/04 16:40:49;;;;;;;0.40;0.40;;;;;;;;;;5004878;28;20689;-70
2022/04/04 16:43:36;;;;;;;0.30;0.30;;;;;;;;;;5002311;28;20221;-70
2022/04/04 16:46:23;;;;;;;0.30;0.30;;;;;;;;;;5001161;28;20323;-70
2022/04/04 16:49:12;;;;;;;0.20;0.20;;;;;;;;;;5012416;28;20778;-70
2022/04/04 16:51:58;;;;;;;0.40;0.40;;;;;;;;;;5021878;28;20292;-70
2022/04/04 16:54:45;;;;;;;0.20;0.20;;;;;;;;;;5025257;28;20894;-70